Аэропорт: Актау. Актау

ICAO: UATE

METAR:
2019/01/21 23:00
UATE 212300Z 12006MPS 9999 BKN014 01/M01 Q1018 R12/0///70 NOSIG RMK QFE762/1016
METAR:
2019/01/21 18:18
TAF UATE 211704Z 2118/2218 12006G12MPS 9999 BKN005 BKN015 TX07/2210Z TN01/2203Z 
      TEMPO 2118/2206 2000 BR BKN003